Time;durP1;ratioP1;P1;durP2;ratioP2;P2;SDS_P1;SDS_P2;PMS_P1;PMS_P2;Temp;Humidity;BMP_temperature;BMP_pressure;BME280_temperature;BME280_humidity;BME280_pressure;Samples;Min_cycle;Max_cycle;Signal;HPM_P1;HPM_P2
2021/04/20 00:01:21;;;;;;;69.63;26.73;;;6.80;99.90;;;;;;10462111;28;20995;-71
2021/04/20 00:06:23;;;;;;;65.75;29.17;;;6.80;99.90;;;;;;10463929;28;20646;-72
2021/04/20 00:11:25;;;;;;;63.97;29.57;;;6.80;99.90;;;;;;10465322;28;20501;-73
2021/04/20 00:16:26;;;;;;;65.38;27.52;;;6.80;99.90;;;;;;10465146;28;20044;-73
2021/04/20 00:21:28;;;;;;;67.32;27.33;;;6.70;99.90;;;;;;10465010;28;20098;-73
2021/04/20 00:26:30;;;;;;;80.28;29.02;;;6.60;99.90;;;;;;10465211;28;21086;-71
2021/04/20 00:31:31;;;;;;;78.68;29.67;;;6.50;99.90;;;;;;10464161;28;20112;-73
2021/04/20 00:36:33;;;;;;;84.32;29.48;;;6.40;99.90;;;;;;10461612;28;20222;-74
2021/04/20 00:41:35;;;;;;;93.40;32.43;;;6.40;99.90;;;;;;10464746;28;20044;-72
2021/04/20 00:46:37;;;;;;;78.15;27.60;;;6.40;99.90;;;;;;10463287;28;20052;-73
2021/04/20 00:51:39;;;;;;;86.20;31.65;;;6.40;99.90;;;;;;10462630;28;20131;-72
2021/04/20 00:56:41;;;;;;;89.28;32.08;;;6.30;99.90;;;;;;10463370;28;20048;-73
2021/04/20 01:01:43;;;;;;;96.65;31.98;;;6.20;99.90;;;;;;10463014;28;20055;-74
2021/04/20 01:06:47;;;;;;;82.93;32.90;;;6.10;99.90;;;;;;10461222;28;20588;-72
2021/04/20 01:11:50;;;;;;;83.18;32.28;;;6.10;99.90;;;;;;10457752;28;20102;-73
2021/04/20 01:16:51;;;;;;;87.95;34.45;;;6.10;99.90;;;;;;10457881;28;20547;-73
2021/04/20 01:21:56;;;;;;;90.57;35.35;;;6.20;99.90;;;;;;10461206;28;20063;-70
2021/04/20 01:26:59;;;;;;;87.88;32.67;;;6.30;99.90;;;;;;10461515;28;20052;-73
2021/04/20 01:32:00;;;;;;;83.30;31.58;;;6.20;99.90;;;;;;10455509;28;20056;-72
2021/04/20 01:37:01;;;;;;;84.35;30.60;;;6.10;99.90;;;;;;10459033;28;20151;-71
2021/04/20 01:42:04;;;;;;;118.15;35.10;;;6.00;99.90;;;;;;10462016;28;20056;-74
2021/04/20 01:47:06;;;;;;;94.15;30.70;;;5.90;99.90;;;;;;10462893;28;20135;-72
2021/04/20 01:52:08;;;;;;;83.63;30.58;;;5.90;99.90;;;;;;10462843;28;20036;-73
2021/04/20 01:57:11;;;;;;;101.75;37.63;;;5.90;99.90;;;;;;10462567;28;20503;-73
2021/04/20 02:02:13;;;;;;;91.10;33.47;;;6.00;99.90;;;;;;10460335;28;20142;-73
2021/04/20 02:07:14;;;;;;;86.72;32.30;;;6.10;99.90;;;;;;10462029;28;20496;-74
2021/04/20 02:12:17;;;;;;;86.53;33.05;;;6.10;99.90;;;;;;10460529;28;20088;-73
2021/04/20 02:17:18;;;;;;;77.90;32.57;;;6.00;99.90;;;;;;10461724;28;20072;-73
2021/04/20 02:22:20;;;;;;;87.88;30.10;;;5.70;99.90;;;;;;10460569;28;20053;-73
2021/04/20 02:27:22;;;;;;;76.78;27.85;;;5.50;99.90;;;;;;10461706;28;20134;-73
2021/04/20 02:32:24;;;;;;;78.65;27.55;;;5.40;99.90;;;;;;10459928;28;20052;-68
2021/04/20 02:37:25;;;;;;;96.30;27.85;;;5.20;99.90;;;;;;10458802;28;20645;-73
2021/04/20 02:42:31;;;;;;;88.85;30.40;;;5.10;99.90;;;;;;10458114;28;20058;-73
2021/04/20 02:47:34;;;;;;;92.63;32.25;;;5.10;99.90;;;;;;10458719;28;20098;-72
2021/04/20 02:52:37;;;;;;;85.63;31.40;;;5.00;99.90;;;;;;10458903;28;20056;-73
2021/04/20 02:57:42;;;;;;;95.80;34.63;;;5.00;99.90;;;;;;10457367;28;20055;-73
2021/04/20 03:02:45;;;;;;;81.57;32.35;;;5.10;99.90;;;;;;10456914;28;20329;-73
2021/04/20 03:07:48;;;;;;;96.93;31.95;;;5.10;99.90;;;;;;10457458;28;20170;-69
2021/04/20 03:12:51;;;;;;;101.03;30.90;;;5.50;99.90;;;;;;10458620;28;20057;-73
2021/04/20 03:17:53;;;;;;;100.18;29.38;;;4.70;99.90;;;;;;10457894;28;20483;-74
2021/04/20 03:22:56;;;;;;;132.40;35.33;;;4.70;99.90;;;;;;10456897;28;20087;-73
2021/04/20 03:28:00;;;;;;;113.93;36.67;;;4.60;99.90;;;;;;10457866;28;20060;-73
2021/04/20 03:33:07;;;;;;;101.10;33.17;;;4.60;99.90;;;;;;10456888;28;20052;-72
2021/04/20 03:38:17;;;;;;;133.57;36.22;;;4.60;99.90;;;;;;10457555;28;20755;-74
2021/04/20 03:43:21;;;;;;;113.55;34.05;;;4.40;99.90;;;;;;10456812;28;20076;-74
2021/04/20 03:48:27;;;;;;;117.65;36.03;;;4.30;99.90;;;;;;10457597;28;20055;-73
2021/04/20 03:53:30;;;;;;;126.00;36.95;;;4.40;99.90;;;;;;10458259;28;20044;-74
2021/04/20 03:58:34;;;;;;;113.82;33.70;;;4.20;99.90;;;;;;10457306;28;20045;-73
2021/04/20 04:03:37;;;;;;;107.95;33.15;;;4.20;99.90;;;;;;10458203;28;20060;-73
2021/04/20 04:08:41;;;;;;;120.65;34.80;;;4.10;99.90;;;;;;10458701;28;20128;-74
2021/04/20 04:13:46;;;;;;;118.50;35.67;;;4.20;99.90;;;;;;10455459;28;20056;-74
2021/04/20 04:18:53;;;;;;;127.63;39.25;;;4.30;99.90;;;;;;10455713;28;20056;-74
2021/04/20 04:23:57;;;;;;;119.45;37.70;;;4.20;99.90;;;;;;10455178;28;20069;-73
2021/04/20 04:29:01;;;;;;;121.55;34.67;;;4.20;99.90;;;;;;10455060;28;20059;-74
2021/04/20 04:34:05;;;;;;;162.05;41.78;;;4.20;99.90;;;;;;10453098;28;20055;-73
2021/04/20 04:39:09;;;;;;;149.23;40.22;;;4.20;99.90;;;;;;10455799;28;20411;-73
2021/04/20 04:44:12;;;;;;;125.97;36.80;;;4.20;99.90;;;;;;10459811;28;20171;-73
2021/04/20 04:49:14;;;;;;;168.10;47.10;;;4.10;99.90;;;;;;10463520;28;20541;-74
2021/04/20 04:54:17;;;;;;;159.07;47.38;;;4.50;99.90;;;;;;10462987;28;20052;-71
2021/04/20 04:59:23;;;;;;;163.77;47.22;;;5.00;99.90;;;;;;10463922;28;20057;-73
2021/04/20 05:04:25;;;;;;;163.85;46.08;;;5.30;99.90;;;;;;10462422;28;20466;-69
2021/04/20 05:09:27;;;;;;;138.23;41.75;;;5.50;99.90;;;;;;10462561;28;20041;-72
2021/04/20 05:14:29;;;;;;;120.78;38.90;;;5.50;99.90;;;;;;10448539;28;20051;-72
2021/04/20 05:19:33;;;;;;;98.90;35.13;;;5.90;99.90;;;;;;10462502;28;20072;-73
2021/04/20 05:24:34;;;;;;;98.70;38.80;;;6.40;99.90;;;;;;10461808;28;20135;-72
2021/04/20 05:29:39;;;;;;;73.78;33.55;;;7.20;99.90;;;;;;10461614;28;20044;-72
2021/04/20 05:34:40;;;;;;;68.28;30.85;;;8.50;99.90;;;;;;10463630;28;20060;-72
2021/04/20 05:39:41;;;;;;;68.30;28.90;;;9.90;97.90;;;;;;10461791;28;20055;-72
2021/04/20 05:44:44;;;;;;;68.53;32.83;;;11.10;95.40;;;;;;10462318;28;20041;-72
2021/04/20 05:49:45;;;;;;;76.20;34.53;;;12.20;92.90;;;;;;10461949;28;20143;-72
2021/04/20 05:54:47;;;;;;;74.93;34.38;;;13.20;90.70;;;;;;10461204;28;20044;-70
2021/04/20 05:59:52;;;;;;;81.65;35.50;;;14.30;88.10;;;;;;10459495;28;21505;-72
2021/04/20 06:04:58;;;;;;;81.60;35.30;;;15.30;84.80;;;;;;10454313;28;20122;-72
2021/04/20 06:10:00;;;;;;;71.28;33.08;;;16.30;82.50;;;;;;10455043;28;20040;-72
2021/04/20 06:15:03;;;;;;;71.67;37.63;;;17.40;79.30;;;;;;10456604;28;20119;-71
2021/04/20 06:20:07;;;;;;;68.57;35.35;;;18.30;77.10;;;;;;10457262;28;20060;-73
2021/04/20 06:25:10;;;;;;;65.63;37.03;;;19.30;74.60;;;;;;10457266;28;20503;-71
2021/04/20 06:30:14;;;;;;;100.95;36.88;;;20.20;73.10;;;;;;10457605;28;20041;-73
2021/04/20 06:35:18;;;;;;;93.20;36.58;;;20.90;72.20;;;;;;10458455;28;20043;-69
2021/04/20 06:40:23;;;;;;;66.53;39.25;;;21.40;72.80;;;;;;10457009;28;20087;-71
2021/04/20 06:45:29;;;;;;;72.35;39.65;;;21.80;73.80;;;;;;10458632;28;20159;-70
2021/04/20 06:50:33;;;;;;;68.20;42.10;;;22.10;74.80;;;;;;10457956;28;20771;-73
2021/04/20 06:55:43;;;;;;;61.30;41.70;;;22.90;74.00;;;;;;10457570;28;20056;-70
2021/04/20 07:00:58;;;;;;;67.30;40.22;;;23.50;72.10;;;;;;10457314;28;20420;-72
2021/04/20 07:06:08;;;;;;;62.38;40.13;;;24.30;71.60;;;;;;10456449;28;20088;-71
2021/04/20 07:11:12;;;;;;;59.28;40.70;;;25.10;69.40;;;;;;10456085;28;20163;-72
2021/04/20 07:16:28;;;;;;;62.70;40.53;;;25.20;70.30;;;;;;10456046;28;20044;-73
2021/04/20 07:22:05;;;;;;;51.88;38.05;;;25.30;68.40;;;;;;10455312;28;20598;-73
2021/04/20 07:27:18;;;;;;;55.53;37.80;;;25.70;68.40;;;;;;10439566;28;20095;-73
2021/04/20 07:32:32;;;;;;;51.28;37.80;;;25.80;68.80;;;;;;10452137;28;20048;-73
2021/04/20 07:37:40;;;;;;;74.00;40.80;;;26.60;67.30;;;;;;10454135;28;20061;-74
2021/04/20 07:43:00;;;;;;;59.20;41.17;;;26.80;66.40;;;;;;10453600;28;20459;-75
2021/04/20 07:48:13;;;;;;;58.92;41.63;;;27.30;67.20;;;;;;10453871;28;20178;-72
2021/04/20 07:53:20;;;;;;;57.33;41.65;;;27.80;65.70;;;;;;10455623;28;20083;-73
2021/04/20 07:58:27;;;;;;;54.17;40.75;;;28.10;65.50;;;;;;10456026;28;20904;-74
2021/04/20 08:03:42;;;;;;;51.78;38.88;;;28.30;64.00;;;;;;10455655;28;20057;-73
2021/04/20 08:08:48;;;;;;;56.22;39.03;;;28.90;63.20;;;;;;10456447;28;20148;-72
2021/04/20 08:13:52;;;;;;;44.70;34.78;;;29.10;60.50;;;;;;10451671;28;20089;-72
2021/04/20 08:18:59;;;;;;;43.60;34.10;;;29.30;60.70;;;;;;10461656;28;20139;-70
2021/04/20 08:24:07;;;;;;;43.35;34.10;;;29.70;58.80;;;;;;10462416;28;20078;-69
2021/04/20 08:29:15;;;;;;;40.83;33.55;;;29.80;56.80;;;;;;10461521;28;20076;-71
2021/04/20 08:34:22;;;;;;;44.28;33.47;;;29.90;52.20;;;;;;10460808;28;20036;-70
2021/04/20 08:39:34;;;;;;;37.95;31.30;;;29.60;51.50;;;;;;10460441;28;20388;-72
2021/04/20 08:44:47;;;;;;;44.38;31.88;;;29.80;49.70;;;;;;10461986;28;20536;-71
2021/04/20 08:49:54;;;;;;;40.83;32.03;;;30.00;47.10;;;;;;10462735;28;20213;-71
2021/04/20 08:55:10;;;;;;;36.00;29.65;;;30.30;45.40;;;;;;10458597;28;21377;-71
2021/04/20 09:00:15;;;;;;;40.42;28.80;;;30.80;44.20;;;;;;10461367;28;20473;-70
2021/04/20 09:05:32;;;;;;;37.60;28.88;;;31.00;41.10;;;;;;10458578;28;20072;-71
2021/04/20 09:10:37;;;;;;;39.78;29.45;;;30.20;40.00;;;;;;10458127;28;20041;-70
2021/04/20 09:15:48;;;;;;;37.67;29.58;;;30.10;37.50;;;;;;10457263;28;20610;-70
2021/04/20 09:21:00;;;;;;;38.63;30.08;;;29.60;36.30;;;;;;10458528;28;20048;-69
2021/04/20 09:26:13;;;;;;;38.58;30.25;;;30.60;36.10;;;;;;10456633;28;20086;-71
2021/04/20 09:31:18;;;;;;;35.60;27.92;;;29.20;34.80;;;;;;10455001;28;20435;-70
2021/04/20 09:36:21;;;;;;;35.00;28.23;;;29.90;35.30;;;;;;10455049;28;20086;-69
2021/04/20 09:41:28;;;;;;;34.30;28.52;;;30.30;33.50;;;;;;10456545;28;20084;-69
2021/04/20 09:46:33;;;;;;;38.10;29.42;;;30.30;33.30;;;;;;10453347;28;20107;-69
2021/04/20 09:51:45;;;;;;;39.17;28.63;;;29.00;31.10;;;;;;10456701;28;20143;-68
2021/04/20 09:56:51;;;;;;;36.47;29.60;;;30.00;32.40;;;;;;10457364;28;20121;-69
2021/04/20 10:02:05;;;;;;;34.50;28.05;;;30.40;32.30;;;;;;10458374;28;20041;-69
2021/04/20 10:07:22;;;;;;;36.45;28.95;;;30.70;32.10;;;;;;10459476;28;20105;-69
2021/04/20 10:12:36;;;;;;;34.97;29.48;;;31.70;31.80;;;;;;10457636;28;20482;-70
2021/04/20 10:17:44;;;;;;;39.00;29.88;;;30.10;31.60;;;;;;10457909;28;20598;-70
2021/04/20 10:22:53;;;;;;;37.35;29.67;;;29.60;31.70;;;;;;10459573;28;20048;-69
2021/04/20 10:28:04;;;;;;;36.87;29.90;;;29.80;31.30;;;;;;10457017;28;20106;-68
2021/04/20 10:33:06;;;;;;;41.75;31.70;;;29.40;31.50;;;;;;10457089;28;20052;-69
2021/04/20 10:38:15;;;;;;;35.47;30.02;;;30.00;32.10;;;;;;10452369;28;20711;-68
2021/04/20 10:43:18;;;;;;;36.75;28.60;;;29.10;31.70;;;;;;10454215;28;20546;-68
2021/04/20 10:48:23;;;;;;;39.28;29.27;;;29.20;31.80;;;;;;10456938;28;20045;-68
2021/04/20 10:53:29;;;;;;;35.63;27.85;;;29.10;31.90;;;;;;10455932;28;20448;-68
2021/04/20 10:58:31;;;;;;;37.08;29.92;;;28.70;31.80;;;;;;10457575;28;20175;-69
2021/04/20 11:03:35;;;;;;;33.53;27.48;;;28.50;31.30;;;;;;10455259;28;20044;-69
2021/04/20 11:08:39;;;;;;;36.22;29.17;;;28.20;32.50;;;;;;10455790;28;20057;-68
2021/04/20 11:13:43;;;;;;;38.80;29.90;;;27.90;32.60;;;;;;10457356;28;20050;-68
2021/04/20 11:18:48;;;;;;;41.72;30.85;;;27.50;33.30;;;;;;10457316;28;20056;-67
2021/04/20 11:23:57;;;;;;;43.28;29.08;;;27.00;33.60;;;;;;10456901;28;20147;-67
2021/04/20 11:29:02;;;;;;;33.95;26.92;;;27.60;34.60;;;;;;10452416;28;20176;-68
2021/04/20 11:34:10;;;;;;;40.75;29.75;;;27.40;33.70;;;;;;10451340;28;20041;-68
2021/04/20 11:39:18;;;;;;;37.50;27.00;;;27.20;33.70;;;;;;10452793;28;20612;-68
2021/04/20 11:44:22;;;;;;;34.47;27.35;;;27.50;33.60;;;;;;10453762;28;20033;-71
2021/04/20 11:49:27;;;;;;;39.38;28.90;;;27.60;33.10;;;;;;10456082;28;20060;-73
2021/04/20 11:54:33;;;;;;;36.33;28.73;;;27.60;33.50;;;;;;10462734;28;20118;-72
2021/04/20 11:59:37;;;;;;;35.60;27.90;;;27.10;33.40;;;;;;10466784;28;20369;-69
2021/04/20 12:04:40;;;;;;;42.22;29.50;;;26.90;34.10;;;;;;10463735;28;20044;-72
2021/04/20 12:09:44;;;;;;;40.55;28.02;;;26.60;33.70;;;;;;10463538;28;20082;-69
2021/04/20 12:14:46;;;;;;;43.53;29.10;;;26.60;34.50;;;;;;10463528;28;20081;-69
2021/04/20 12:19:47;;;;;;;38.42;28.23;;;26.70;34.20;;;;;;10464190;28;20161;-69
2021/04/20 12:24:50;;;;;;;30.05;22.85;;;26.50;34.40;;;;;;10464087;28;20045;-69
2021/04/20 12:29:52;;;;;;;35.10;25.63;;;26.40;34.00;;;;;;10462976;28;20076;-70
2021/04/20 12:34:54;;;;;;;36.28;26.88;;;27.30;34.20;;;;;;10461055;28;20059;-70
2021/04/20 12:40:01;;;;;;;38.03;27.70;;;26.50;34.30;;;;;;10460873;28;20442;-68
2021/04/20 12:45:08;;;;;;;47.17;28.05;;;25.50;34.40;;;;;;10454545;28;20147;-68
2021/04/20 12:50:13;;;;;;;42.70;30.75;;;25.10;35.90;;;;;;10459223;28;20509;-68
2021/04/20 12:55:20;;;;;;;40.65;29.92;;;25.10;36.30;;;;;;10459256;28;20177;-68
2021/04/20 13:00:25;;;;;;;39.00;27.38;;;25.10;36.60;;;;;;10458667;28;20053;-68
2021/04/20 13:05:30;;;;;;;38.75;26.58;;;24.70;36.10;;;;;;10458111;28;20091;-68
2021/04/20 13:10:33;;;;;;;41.42;31.05;;;24.50;36.50;;;;;;10458675;28;20773;-68
2021/04/20 13:15:35;;;;;;;44.42;31.25;;;24.20;37.30;;;;;;10456458;28;20036;-68
2021/04/20 13:20:38;;;;;;;49.75;33.38;;;24.80;38.20;;;;;;10458952;28;20485;-68
2021/04/20 13:25:40;;;;;;;50.75;32.42;;;23.80;38.40;;;;;;10457894;28;20415;-69
2021/04/20 13:30:47;;;;;;;47.92;32.17;;;23.70;38.50;;;;;;10457445;28;20156;-68
2021/04/20 13:35:51;;;;;;;48.53;33.15;;;23.40;39.20;;;;;;10457013;28;20093;-69
2021/04/20 13:40:59;;;;;;;43.10;31.45;;;23.40;39.90;;;;;;10452396;28;20060;-68
2021/04/20 13:46:05;;;;;;;50.38;34.60;;;23.40;39.60;;;;;;10452864;28;20052;-68
2021/04/20 13:51:07;;;;;;;45.85;32.33;;;23.60;39.90;;;;;;10457403;28;20087;-69
2021/04/20 13:56:13;;;;;;;49.10;34.10;;;23.20;39.40;;;;;;10457622;28;20052;-69
2021/04/20 14:01:19;;;;;;;46.63;32.38;;;23.00;41.00;;;;;;10455789;28;20070;-67
2021/04/20 14:06:22;;;;;;;45.80;30.88;;;23.00;40.80;;;;;;10457483;28;20492;-72
2021/04/20 14:11:32;;;;;;;43.65;30.98;;;22.50;41.00;;;;;;10454536;28;20139;-66
2021/04/20 14:16:36;;;;;;;43.80;31.23;;;22.30;41.10;;;;;;10455328;28;20063;-69
2021/04/20 14:21:39;;;;;;;45.35;32.10;;;22.30;40.90;;;;;;10454126;28;20469;-71
2021/04/20 14:26:46;;;;;;;45.47;32.03;;;22.20;41.60;;;;;;10456286;28;20057;-71
2021/04/20 14:31:49;;;;;;;50.13;33.58;;;21.70;42.30;;;;;;10456609;28;20050;-68
2021/04/20 14:36:57;;;;;;;51.80;34.78;;;21.40;43.40;;;;;;10453447;28;20084;-69
2021/04/20 14:42:01;;;;;;;50.92;34.30;;;21.60;43.70;;;;;;10458276;28;20461;-71
2021/04/20 14:47:04;;;;;;;51.08;33.85;;;21.80;43.50;;;;;;10457768;28;20048;-70
2021/04/20 14:52:11;;;;;;;50.35;33.22;;;22.10;43.00;;;;;;10457840;28;20131;-72
2021/04/20 14:57:17;;;;;;;53.78;34.30;;;22.40;42.50;;;;;;10457280;28;20182;-70
2021/04/20 15:02:21;;;;;;;52.42;34.17;;;22.50;42.30;;;;;;10456659;28;20392;-69
2021/04/20 15:07:31;;;;;;;46.05;32.90;;;22.70;42.20;;;;;;10455316;28;20056;-70
2021/04/20 15:12:37;;;;;;;43.72;31.65;;;22.30;42.40;;;;;;10455134;28;20056;-70
2021/04/20 15:17:42;;;;;;;47.95;33.53;;;22.10;42.10;;;;;;10454822;28;20078;-69
2021/04/20 15:22:50;;;;;;;49.80;33.35;;;22.00;42.50;;;;;;10454771;28;20091;-71
2021/04/20 15:27:56;;;;;;;54.33;35.88;;;20.90;44.10;;;;;;10454583;28;20589;-71
2021/04/20 15:33:01;;;;;;;56.00;35.97;;;20.10;46.10;;;;;;10454507;28;20056;-69
2021/04/20 15:38:07;;;;;;;52.08;33.17;;;19.40;48.70;;;;;;10452170;28;20082;-69
2021/04/20 15:43:13;;;;;;;52.47;33.72;;;19.00;50.00;;;;;;10451773;28;20040;-69
2021/04/20 15:48:18;;;;;;;48.83;32.83;;;18.70;50.70;;;;;;10449030;28;20048;-69
2021/04/20 15:53:23;;;;;;;56.58;33.70;;;18.30;51.40;;;;;;10452228;28;20135;-70
2021/04/20 15:58:27;;;;;;;50.30;31.85;;;19.40;53.60;;;;;;10453615;28;20407;-70
2021/04/20 16:03:32;;;;;;;52.28;32.13;;;17.70;54.00;;;;;;10447956;28;20946;-69
2021/04/20 16:08:36;;;;;;;47.40;29.25;;;17.40;53.70;;;;;;10451967;28;20076;-70
2021/04/20 16:13:44;;;;;;;53.33;30.80;;;17.20;54.30;;;;;;10447879;28;20054;-70
2021/04/20 16:18:50;;;;;;;46.13;28.63;;;16.90;55.50;;;;;;10452997;28;20243;-71
2021/04/20 16:23:53;;;;;;;43.55;27.90;;;16.90;55.00;;;;;;10453110;28;20064;-70
2021/04/20 16:28:59;;;;;;;47.58;29.17;;;16.70;55.00;;;;;;10449380;28;20489;-70
2021/04/20 16:34:02;;;;;;;47.75;29.67;;;16.60;57.20;;;;;;10448373;28;20114;-70
2021/04/20 16:39:19;;;;;;;52.13;31.23;;;16.50;58.10;;;;;;10455791;28;20666;-69
2021/04/20 16:44:51;;;;;;;52.70;33.13;;;16.10;59.60;;;;;;10459397;28;20432;-71
2021/04/20 16:50:13;;;;;;;52.43;30.30;;;15.70;61.70;;;;;;10455368;28;20138;-70
2021/04/20 16:55:24;;;;;;;44.13;26.50;;;15.50;62.80;;;;;;10458588;28;20040;-70
2021/04/20 17:00:41;;;;;;;48.38;27.25;;;15.40;62.30;;;;;;10452459;28;20048;-70
2021/04/20 17:06:04;;;;;;;42.85;26.92;;;15.20;61.90;;;;;;10455911;28;20552;-71
2021/04/20 17:11:14;;;;;;;42.60;26.05;;;15.10;62.40;;;;;;10419770;28;20056;-71
2021/04/20 17:16:35;;;;;;;45.17;26.90;;;15.00;63.10;;;;;;10455781;28;20044;-70
2021/04/20 17:22:00;;;;;;;43.28;27.02;;;14.70;64.20;;;;;;10456144;28;20055;-71
2021/04/20 17:27:09;;;;;;;48.30;27.55;;;14.50;65.80;;;;;;10458910;28;20052;-71
2021/04/20 17:32:18;;;;;;;46.33;26.50;;;14.20;67.30;;;;;;10456191;28;20079;-72
2021/04/20 17:37:36;;;;;;;40.47;24.30;;;14.00;68.60;;;;;;10457326;28;20040;-68
2021/04/20 17:42:49;;;;;;;46.13;26.90;;;15.00;69.40;;;;;;10458080;28;20064;-69
2021/04/20 17:47:59;;;;;;;45.47;24.15;;;13.70;69.40;;;;;;10456570;28;20059;-71
2021/04/20 17:53:11;;;;;;;42.35;24.70;;;13.60;70.20;;;;;;10472451;28;20171;-70
2021/04/20 17:58:24;;;;;;;43.50;24.98;;;13.40;71.10;;;;;;10468376;28;21289;-68
2021/04/20 18:03:36;;;;;;;44.30;25.85;;;13.20;72.30;;;;;;10471850;28;20060;-68
2021/04/20 18:08:52;;;;;;;41.95;25.75;;;13.10;72.90;;;;;;10471811;28;20048;-71
2021/04/20 18:14:07;;;;;;;43.90;26.48;;;12.90;74.60;;;;;;10475397;28;20158;-69
2021/04/20 18:19:22;;;;;;;40.88;24.35;;;12.70;75.50;;;;;;10476030;28;20746;-69
2021/04/20 18:24:36;;;;;;;40.30;22.58;;;12.60;76.70;;;;;;10472635;28;20159;-73
2021/04/20 18:29:45;;;;;;;50.15;24.70;;;12.40;77.50;;;;;;10471882;28;20055;-77
2021/04/20 18:34:58;;;;;;;40.50;23.05;;;12.20;78.60;;;;;;10470952;28;20443;-71
2021/04/20 18:40:20;;;;;;;40.20;22.63;;;12.00;79.40;;;;;;10470847;28;20124;-69
2021/04/20 18:45:27;;;;;;;43.23;24.67;;;11.80;80.60;;;;;;10469725;28;20051;-70
2021/04/20 18:50:46;;;;;;;41.03;23.52;;;11.60;82.40;;;;;;10468881;28;20051;-66
2021/04/20 18:55:56;;;;;;;39.70;22.90;;;11.40;82.70;;;;;;10469945;28;20067;-68
2021/04/20 19:01:11;;;;;;;47.22;26.38;;;11.30;84.10;;;;;;10469487;28;20129;-66
2021/04/20 19:06:31;;;;;;;47.72;26.38;;;11.00;87.90;;;;;;10469418;28;20045;-66
2021/04/20 19:11:42;;;;;;;53.10;28.33;;;10.90;86.10;;;;;;10466153;28;20132;-67
2021/04/20 19:17:10;;;;;;;50.55;27.80;;;10.80;87.90;;;;;;10467368;28;20052;-66
2021/04/20 19:22:13;;;;;;;47.33;26.25;;;10.70;90.00;;;;;;10466583;28;20534;-66
2021/04/20 19:27:19;;;;;;;50.22;26.55;;;10.60;90.00;;;;;;10466604;28;20059;-65
2021/04/20 19:32:26;;;;;;;50.22;27.73;;;10.50;90.10;;;;;;10464279;28;20048;-65
2021/04/20 19:37:36;;;;;;;57.75;29.23;;;10.40;90.60;;;;;;10467583;28;20049;-66
2021/04/20 19:42:48;;;;;;;58.40;29.05;;;10.30;90.90;;;;;;10468923;28;20137;-67
2021/04/20 19:47:51;;;;;;;49.53;26.83;;;10.20;91.20;;;;;;10462480;28;20563;-66
2021/04/20 19:52:57;;;;;;;56.63;27.75;;;10.10;91.20;;;;;;10469461;28;20060;-66
2021/04/20 19:58:00;;;;;;;56.10;30.05;;;10.00;91.40;;;;;;10468718;28;20048;-66
2021/04/20 20:03:18;;;;;;;59.97;30.65;;;9.90;91.60;;;;;;10466855;28;20055;-66
2021/04/20 20:08:22;;;;;;;53.58;29.23;;;9.80;91.90;;;;;;10467599;28;20127;-67
2021/04/20 20:13:29;;;;;;;63.90;28.98;;;9.70;92.40;;;;;;10469678;28;20103;-68
2021/04/20 20:18:37;;;;;;;57.63;28.80;;;9.60;92.50;;;;;;10475379;28;20136;-67
2021/04/20 20:23:41;;;;;;;57.00;29.95;;;9.50;92.80;;;;;;10474469;28;20083;-68
2021/04/20 20:28:43;;;;;;;56.40;28.52;;;9.40;93.40;;;;;;10472533;28;20075;-67
2021/04/20 20:33:48;;;;;;;54.10;29.60;;;9.40;93.50;;;;;;10473848;28;20084;-66
2021/04/20 20:38:53;;;;;;;54.67;29.17;;;9.30;94.00;;;;;;10474584;28;20056;-65
2021/04/20 20:43:56;;;;;;;52.00;27.92;;;9.10;95.00;;;;;;10475211;28;20063;-67
2021/04/20 20:48:59;;;;;;;59.00;30.42;;;9.20;94.20;;;;;;10478160;28;20058;-65
2021/04/20 20:54:03;;;;;;;60.33;30.10;;;9.20;94.40;;;;;;10477900;28;20139;-66
2021/04/20 20:59:09;;;;;;;58.67;29.52;;;9.10;94.50;;;;;;10477732;28;20404;-66
2021/04/20 21:04:19;;;;;;;57.33;28.88;;;9.10;94.60;;;;;;10476478;28;20506;-65
2021/04/20 21:09:39;;;;;;;56.05;29.58;;;9.00;95.00;;;;;;10477223;28;20135;-66
2021/04/20 21:14:48;;;;;;;62.55;29.02;;;8.90;94.80;;;;;;10477084;28;20507;-66
2021/04/20 21:19:54;;;;;;;61.60;28.27;;;8.80;94.90;;;;;;10477319;28;20079;-65
2021/04/20 21:24:56;;;;;;;53.15;28.38;;;8.70;95.10;;;;;;10474630;28;20063;-66
2021/04/20 21:30:01;;;;;;;66.47;30.90;;;8.70;95.50;;;;;;10477772;28;20053;-65
2021/04/20 21:35:07;;;;;;;58.53;29.65;;;8.70;95.60;;;;;;10474828;28;20943;-66
2021/04/20 21:40:13;;;;;;;61.83;30.40;;;8.60;95.40;;;;;;10475308;28;20064;-66
2021/04/20 21:45:18;;;;;;;64.80;30.13;;;8.60;95.70;;;;;;10455760;28;20478;-65
2021/04/20 21:50:20;;;;;;;63.05;29.35;;;8.50;95.70;;;;;;10475181;28;20687;-65
2021/04/20 21:55:25;;;;;;;57.13;28.67;;;8.40;96.10;;;;;;10475150;28;20392;-65
2021/04/20 22:00:34;;;;;;;61.13;29.75;;;8.40;96.20;;;;;;10476062;28;20246;-65
2021/04/20 22:05:40;;;;;;;71.72;30.15;;;8.30;96.20;;;;;;10475475;28;20048;-67
2021/04/20 22:10:42;;;;;;;62.17;30.02;;;8.20;96.30;;;;;;10475063;28;20094;-66
2021/04/20 22:15:45;;;;;;;65.30;29.87;;;8.20;96.80;;;;;;10469725;28;20951;-66
2021/04/20 22:20:48;;;;;;;;;;;8.10;97.10;;;;;;10473986;28;20151;-67
2021/04/20 22:25:53;;;;;;;58.17;27.95;;;8.00;96.90;;;;;;10473361;28;20020;-65
2021/04/20 22:30:54;;;;;;;62.42;28.67;;;8.00;96.90;;;;;;10474915;28;20181;-65
2021/04/20 22:36:01;;;;;;;52.60;27.23;;;7.90;96.70;;;;;;10470834;28;20393;-65
2021/04/20 22:41:10;;;;;;;59.97;28.88;;;7.80;96.70;;;;;;10471435;28;20052;-65
2021/04/20 22:46:23;;;;;;;63.88;27.88;;;7.60;96.40;;;;;;10470969;28;20063;-66
2021/04/20 22:51:26;;;;;;;61.28;29.70;;;7.40;96.60;;;;;;10472294;28;20041;-66
2021/04/20 22:56:28;;;;;;;63.40;28.33;;;7.30;96.70;;;;;;10470312;28;20510;-65
2021/04/20 23:01:33;;;;;;;57.65;28.42;;;7.20;96.70;;;;;;10470649;28;21017;-65
2021/04/20 23:06:37;;;;;;;66.40;30.83;;;7.20;96.70;;;;;;10469820;28;20484;-65
2021/04/20 23:11:42;;;;;;;71.88;30.17;;;7.00;96.80;;;;;;10469940;28;20726;-65
2021/04/20 23:16:45;;;;;;;68.68;31.17;;;6.90;96.80;;;;;;10468935;28;20059;-65
2021/04/20 23:21:52;;;;;;;65.63;30.50;;;6.80;96.90;;;;;;10465230;28;20159;-66
2021/04/20 23:27:01;;;;;;;76.03;32.45;;;6.70;96.90;;;;;;10465681;28;20147;-66
2021/04/20 23:32:06;;;;;;;82.32;35.13;;;8.10;97.40;;;;;;10465524;28;20041;-66
2021/04/20 23:37:09;;;;;;;91.78;39.40;;;6.60;97.00;;;;;;10470229;28;20087;-65
2021/04/20 23:42:13;;;;;;;94.70;40.35;;;6.50;97.30;;;;;;10470922;28;20114;-65
2021/04/20 23:47:17;;;;;;;94.07;41.38;;;6.50;97.30;;;;;;10472423;28;20495;-65
2021/04/20 23:52:19;;;;;;;112.88;46.35;;;6.40;97.40;;;;;;10481082;28;20044;-66
2021/04/20 23:57:25;;;;;;;111.32;47.03;;;6.30;97.70;;;;;;10482400;28;20047;-65
